createdAt,value
2018-10-05T00:01:29.566Z,10.80
2018-10-05T00:03:58.084Z,10.70
2018-10-05T00:06:26.660Z,10.70
2018-10-05T00:08:55.157Z,10.70
2018-10-05T00:11:23.788Z,10.70
2018-10-05T00:13:52.284Z,10.70
2018-10-05T00:16:20.809Z,10.70
2018-10-05T00:18:49.312Z,10.70
2018-10-05T00:21:17.844Z,10.60
2018-10-05T00:23:46.380Z,10.60
2018-10-05T00:26:14.949Z,10.50
2018-10-05T00:28:43.453Z,10.50
2018-10-05T00:31:18.370Z,10.50
2018-10-05T00:33:46.879Z,10.50
2018-10-05T00:36:15.416Z,10.50
2018-10-05T00:38:43.933Z,10.50
2018-10-05T00:41:12.444Z,10.40
2018-10-05T00:43:40.976Z,10.40
2018-10-05T00:46:09.491Z,10.40
2018-10-05T00:48:38.043Z,10.40
2018-10-05T00:51:06.574Z,10.40
2018-10-05T00:53:35.216Z,10.30
2018-10-05T00:56:03.780Z,10.30
2018-10-05T00:58:32.303Z,10.30
2018-10-05T01:01:00.816Z,10.30
2018-10-05T01:03:29.355Z,10.20
2018-10-05T01:05:57.923Z,10.20
2018-10-05T01:08:26.451Z,10.10
2018-10-05T01:10:54.979Z,10.10
2018-10-05T01:13:23.514Z,10.10
2018-10-05T01:15:52.024Z,10.10
2018-10-05T01:18:20.560Z,10.10
2018-10-05T01:20:49.763Z,10.10
2018-10-05T01:23:18.485Z,10.00
2018-10-05T01:25:46.987Z,10.00
2018-10-05T01:28:15.540Z,10.00
2018-10-05T01:30:44.068Z,10.00
2018-10-05T01:33:12.622Z,9.90
2018-10-05T01:35:41.154Z,9.90
2018-10-05T01:38:09.703Z,9.90
2018-10-05T01:40:38.232Z,9.90
2018-10-05T01:43:06.788Z,9.90
2018-10-05T01:45:35.308Z,9.90
2018-10-05T01:48:03.860Z,9.90
2018-10-05T01:53:07.207Z,9.80
2018-10-05T01:55:35.738Z,9.80
2018-10-05T01:58:04.274Z,9.80
2018-10-05T02:00:32.781Z,9.70
2018-10-05T02:03:01.316Z,9.80
2018-10-05T02:05:29.842Z,9.70
2018-10-05T02:07:58.368Z,9.70
2018-10-05T02:10:26.886Z,9.60
2018-10-05T02:12:55.430Z,9.60
2018-10-05T02:15:23.944Z,9.60
2018-10-05T02:17:52.484Z,9.60
2018-10-05T02:20:21.040Z,9.60
2018-10-05T02:22:49.580Z,9.60
2018-10-05T02:25:18.075Z,9.60
2018-10-05T02:27:46.619Z,9.50
2018-10-05T02:30:15.137Z,9.50
2018-10-05T02:32:43.688Z,9.60
2018-10-05T02:35:12.204Z,9.50
2018-10-05T02:37:40.736Z,9.50
2018-10-05T02:40:09.257Z,9.50
2018-10-05T02:42:37.793Z,9.50
2018-10-05T02:45:06.340Z,9.50
2018-10-05T02:47:34.893Z,9.40
2018-10-05T02:50:03.433Z,9.40
2018-10-05T02:52:31.971Z,9.50
2018-10-05T02:55:00.532Z,9.50
2018-10-05T02:57:29.057Z,9.50
2018-10-05T02:59:57.599Z,9.50
2018-10-05T03:02:29.828Z,9.50
2018-10-05T03:04:58.627Z,9.50
2018-10-05T03:07:28.312Z,9.50
2018-10-05T03:09:57.524Z,9.40
2018-10-05T03:12:26.089Z,9.40
2018-10-05T03:14:54.648Z,9.30
2018-10-05T03:17:23.168Z,9.20
2018-10-05T03:19:51.815Z,9.10
2018-10-05T03:22:20.352Z,9.10
2018-10-05T03:24:48.961Z,9.00
2018-10-05T03:27:17.494Z,9.00
2018-10-05T03:29:46.036Z,9.10
2018-10-05T03:32:14.547Z,9.10
2018-10-05T03:34:43.079Z,9.00
2018-10-05T03:37:11.582Z,9.00
2018-10-05T03:39:46.808Z,9.00
2018-10-05T03:42:15.304Z,8.90
2018-10-05T03:44:43.833Z,8.90
2018-10-05T03:47:12.343Z,8.90
2018-10-05T03:49:40.884Z,8.90
2018-10-05T03:52:09.393Z,8.80
2018-10-05T03:54:37.924Z,8.80
2018-10-05T03:57:07.869Z,8.80
2018-10-05T03:59:36.418Z,8.80
2018-10-05T04:02:05.264Z,8.80
2018-10-05T04:04:33.819Z,8.70
2018-10-05T04:07:02.379Z,8.80
2018-10-05T04:09:30.928Z,8.80
2018-10-05T04:11:59.464Z,8.80
2018-10-05T04:14:28.013Z,8.80
2018-10-05T04:16:56.547Z,8.80
2018-10-05T04:19:25.109Z,8.80
2018-10-05T04:21:54.489Z,8.70
2018-10-05T04:24:23.043Z,8.70
2018-10-05T04:26:51.576Z,8.70
2018-10-05T04:29:20.136Z,8.60
2018-10-05T04:31:48.661Z,8.60
2018-10-05T04:34:17.208Z,8.60
2018-10-05T04:36:45.832Z,8.60
2018-10-05T04:39:14.375Z,8.60
2018-10-05T04:41:42.899Z,8.50
2018-10-05T04:44:11.452Z,8.40
2018-10-05T04:46:39.989Z,8.40
2018-10-05T04:49:08.542Z,8.40
2018-10-05T04:51:37.068Z,8.40
2018-10-05T04:54:05.618Z,8.40
2018-10-05T04:56:34.242Z,8.40
2018-10-05T04:59:02.744Z,8.40
2018-10-05T05:01:31.240Z,8.50
2018-10-05T05:03:59.775Z,8.50
2018-10-05T05:06:28.308Z,8.40
2018-10-05T05:08:56.815Z,8.40
2018-10-05T05:11:25.356Z,8.30
2018-10-05T05:13:53.865Z,8.30
2018-10-05T05:16:22.404Z,8.30
2018-10-05T05:18:50.908Z,8.20
2018-10-05T05:21:19.448Z,8.20
2018-10-05T05:23:47.971Z,8.20
2018-10-05T05:26:16.500Z,8.20
2018-10-05T05:28:45.000Z,8.10
2018-10-05T05:31:13.532Z,8.10
2018-10-05T05:33:42.145Z,8.00
2018-10-05T05:36:10.600Z,7.90
2018-10-05T05:38:39.173Z,7.90
2018-10-05T05:41:07.765Z,7.90
2018-10-05T05:43:36.278Z,8.00
2018-10-05T05:46:04.826Z,8.00
2018-10-05T05:48:33.347Z,8.10
2018-10-05T05:51:01.888Z,8.10
2018-10-05T05:53:30.381Z,8.00
2018-10-05T05:55:58.913Z,8.00
2018-10-05T05:58:27.436Z,8.00
2018-10-05T06:00:56.009Z,7.90
2018-10-05T06:03:24.519Z,7.90
2018-10-05T06:05:53.068Z,8.00
2018-10-05T06:08:21.576Z,8.00
2018-10-05T06:10:50.111Z,8.00
2018-10-05T06:13:18.653Z,7.90
2018-10-05T06:15:47.199Z,7.90
2018-10-05T06:18:15.721Z,7.80
2018-10-05T06:20:44.291Z,7.90
2018-10-05T06:23:12.851Z,7.90
2018-10-05T06:25:41.403Z,8.00
2018-10-05T06:28:10.161Z,8.00
2018-10-05T06:30:39.059Z,8.00
2018-10-05T06:33:07.620Z,8.00
2018-10-05T06:35:36.186Z,8.10
2018-10-05T06:38:04.784Z,8.10
2018-10-05T06:40:33.335Z,8.20
2018-10-05T06:43:01.848Z,8.10
2018-10-05T06:45:30.436Z,8.10
2018-10-05T06:47:58.982Z,8.20
2018-10-05T06:50:27.542Z,8.20
2018-10-05T06:52:56.060Z,8.20
2018-10-05T06:55:24.632Z,8.20
2018-10-05T06:57:53.176Z,8.10
2018-10-05T07:00:21.784Z,8.10
2018-10-05T07:02:50.332Z,8.10
2018-10-05T07:05:18.922Z,8.20
2018-10-05T07:07:47.560Z,8.30
2018-10-05T07:10:16.119Z,8.30
2018-10-05T07:12:44.764Z,8.40
2018-10-05T07:15:13.324Z,8.40
2018-10-05T07:17:41.896Z,8.50
2018-10-05T07:20:10.428Z,8.60
2018-10-05T07:22:38.992Z,8.60
2018-10-05T07:25:07.528Z,8.70
2018-10-05T07:27:36.081Z,8.80
2018-10-05T07:30:04.672Z,8.80
2018-10-05T07:32:33.229Z,8.80
2018-10-05T07:35:01.826Z,8.90
2018-10-05T07:37:30.452Z,8.80
2018-10-05T07:39:58.909Z,8.90
2018-10-05T07:42:27.476Z,8.90
2018-10-05T07:44:56.013Z,9.00
2018-10-05T07:47:24.571Z,9.10
2018-10-05T07:49:53.095Z,9.10
2018-10-05T07:52:21.680Z,9.30
2018-10-05T07:54:50.199Z,9.40
2018-10-05T07:57:18.780Z,9.40
2018-10-05T07:59:47.305Z,9.50
2018-10-05T08:02:15.895Z,9.60
2018-10-05T08:04:44.415Z,9.60
2018-10-05T08:07:12.983Z,9.80
2018-10-05T08:09:41.529Z,9.90
2018-10-05T08:12:10.084Z,10.00
2018-10-05T08:14:38.654Z,10.10
2018-10-05T08:17:07.208Z,10.20
2018-10-05T08:19:35.748Z,10.20
2018-10-05T08:22:04.299Z,10.30
2018-10-05T08:24:32.840Z,10.40
2018-10-05T08:27:01.507Z,10.50
2018-10-05T08:29:30.020Z,10.50
2018-10-05T08:31:58.576Z,10.60
2018-10-05T08:34:27.179Z,10.70
2018-10-05T08:36:55.708Z,10.80
2018-10-05T08:39:24.244Z,10.90
2018-10-05T08:41:52.791Z,11.00
2018-10-05T08:44:21.316Z,11.10
2018-10-05T08:46:49.879Z,11.30
2018-10-05T08:49:18.412Z,11.40
2018-10-05T08:51:47.036Z,11.50
2018-10-05T08:54:15.627Z,11.60
2018-10-05T08:56:44.200Z,11.70
2018-10-05T08:59:12.737Z,11.80
2018-10-05T09:01:41.284Z,11.90
2018-10-05T09:04:09.804Z,12.10
2018-10-05T09:06:38.412Z,12.20
2018-10-05T09:09:07.803Z,12.30
2018-10-05T09:11:36.371Z,12.40
2018-10-05T09:14:04.986Z,12.50
2018-10-05T09:16:33.577Z,12.60
2018-10-05T09:19:02.141Z,12.70
2018-10-05T09:21:30.703Z,12.80
2018-10-05T09:23:59.316Z,12.90
2018-10-05T09:26:27.818Z,13.00
2018-10-05T09:28:56.402Z,13.10
2018-10-05T09:31:24.938Z,13.20
2018-10-05T09:33:53.517Z,13.30
2018-10-05T09:36:22.052Z,13.40
2018-10-05T09:38:50.611Z,13.60
2018-10-05T09:41:19.140Z,13.70
2018-10-05T09:43:47.704Z,13.80
2018-10-05T09:46:16.466Z,13.90
2018-10-05T09:48:45.051Z,14.00
2018-10-05T09:51:13.607Z,14.10
2018-10-05T09:53:42.173Z,14.20
2018-10-05T09:56:10.721Z,14.30
2018-10-05T09:58:39.280Z,14.50
2018-10-05T10:01:13.161Z,14.60
2018-10-05T10:03:41.717Z,14.70
2018-10-05T10:06:10.264Z,14.80
2018-10-05T10:08:38.825Z,14.90
2018-10-05T10:11:07.389Z,15.00
2018-10-05T10:13:36.027Z,15.10
2018-10-05T10:16:04.577Z,15.20
2018-10-05T10:18:33.136Z,15.30
2018-10-05T10:21:01.706Z,15.40
2018-10-05T10:23:30.271Z,15.50
2018-10-05T10:25:58.816Z,15.60
2018-10-05T10:28:27.505Z,15.70
2018-10-05T10:30:55.967Z,15.80
2018-10-05T10:33:24.555Z,15.80
2018-10-05T10:35:53.087Z,16.00
2018-10-05T10:38:21.652Z,16.10
2018-10-05T10:40:50.209Z,16.20
2018-10-05T10:43:18.780Z,16.30
2018-10-05T10:45:47.344Z,16.30
2018-10-05T10:48:18.856Z,16.40
2018-10-05T10:50:47.328Z,16.50
2018-10-05T10:53:15.879Z,16.60
2018-10-05T10:55:44.437Z,16.60
2018-10-05T10:58:13.001Z,16.70
2018-10-05T11:00:41.621Z,16.80
2018-10-05T11:03:10.165Z,16.90
2018-10-05T11:05:38.696Z,17.00
2018-10-05T11:08:07.257Z,17.10
2018-10-05T11:10:35.885Z,17.20
2018-10-05T11:13:04.470Z,17.20
2018-10-05T11:15:32.995Z,17.20
2018-10-05T11:18:01.558Z,17.30
2018-10-05T11:20:30.088Z,17.40
2018-10-05T11:22:58.678Z,17.50
2018-10-05T11:25:27.200Z,17.50
2018-10-05T11:27:55.701Z,17.60
2018-10-05T11:30:24.266Z,17.60
2018-10-05T11:35:27.556Z,17.80
2018-10-05T11:37:56.060Z,17.90
2018-10-05T11:40:24.596Z,18.00
2018-10-05T11:42:53.168Z,18.00
2018-10-05T11:45:21.763Z,18.10
2018-10-05T11:47:50.276Z,18.10
2018-10-05T11:50:18.832Z,18.10
2018-10-05T11:52:47.365Z,18.10
2018-10-05T11:55:15.924Z,18.20
2018-10-05T11:57:44.467Z,18.30
2018-10-05T12:00:16.667Z,18.40
2018-10-05T12:02:45.233Z,18.50
2018-10-05T12:05:13.879Z,18.50
2018-10-05T12:07:42.414Z,18.50
2018-10-05T12:10:11.117Z,18.50
2018-10-05T12:12:39.653Z,18.60
2018-10-05T12:15:08.371Z,18.70
2018-10-05T12:17:36.940Z,18.70
2018-10-05T12:20:05.819Z,18.80
2018-10-05T12:22:34.337Z,18.80
2018-10-05T12:25:02.920Z,18.90
2018-10-05T12:27:31.522Z,18.90
2018-10-05T12:30:00.132Z,19.00
2018-10-05T12:32:28.676Z,19.00
2018-10-05T12:34:57.228Z,19.10
2018-10-05T12:37:25.779Z,19.10
2018-10-05T12:39:54.364Z,19.20
2018-10-05T12:42:22.892Z,19.20
2018-10-05T12:44:51.433Z,19.30
2018-10-05T12:47:19.952Z,19.30
2018-10-05T12:49:48.493Z,19.30
2018-10-05T12:52:17.032Z,19.30
2018-10-05T12:54:45.583Z,19.30
2018-10-05T12:57:14.088Z,19.30
2018-10-05T12:59:42.635Z,19.40
2018-10-05T13:02:11.152Z,19.40
2018-10-05T13:04:39.731Z,19.50
2018-10-05T13:07:08.244Z,19.60
2018-10-05T13:09:36.804Z,19.60
2018-10-05T13:12:05.352Z,19.60
2018-10-05T13:14:33.936Z,19.70
2018-10-05T13:17:02.464Z,19.70
2018-10-05T13:19:31.027Z,19.80
2018-10-05T13:21:59.571Z,19.80
2018-10-05T13:24:28.119Z,19.80
2018-10-05T13:26:56.647Z,19.80
2018-10-05T13:29:25.217Z,19.90
2018-10-05T13:31:53.757Z,19.90
2018-10-05T13:34:22.322Z,20.00
2018-10-05T13:36:50.895Z,20.10
2018-10-05T13:39:19.680Z,20.20
2018-10-05T13:41:48.647Z,20.40
2018-10-05T13:44:17.395Z,20.50
2018-10-05T13:46:46.228Z,20.60
2018-10-05T13:49:14.969Z,20.70
2018-10-05T13:51:43.862Z,20.80
2018-10-05T13:54:12.602Z,20.80
2018-10-05T13:56:41.554Z,20.90
2018-10-05T13:59:10.296Z,21.10
2018-10-05T14:01:38.984Z,21.20
2018-10-05T14:04:07.549Z,21.30
2018-10-05T14:06:36.165Z,21.30
2018-10-05T14:09:07.836Z,21.40
2018-10-05T14:11:36.490Z,21.40
2018-10-05T14:14:05.619Z,21.40
2018-10-05T14:16:34.736Z,21.50
2018-10-05T14:19:03.517Z,21.60
2018-10-05T14:21:32.496Z,21.70
2018-10-05T14:24:01.222Z,21.90
2018-10-05T14:26:29.984Z,22.00
2018-10-05T14:28:58.890Z,22.00
2018-10-05T14:31:27.989Z,22.10
2018-10-05T14:33:56.812Z,22.20
2018-10-05T14:36:25.611Z,22.20
2018-10-05T14:38:54.608Z,22.30
2018-10-05T14:41:23.456Z,22.30
2018-10-05T14:43:52.221Z,22.40
2018-10-05T14:46:21.014Z,22.50
2018-10-05T14:48:49.892Z,22.50
2018-10-05T14:51:18.764Z,22.60
2018-10-05T14:53:47.551Z,22.60
2018-10-05T14:56:16.432Z,22.70
2018-10-05T14:58:45.220Z,22.80
2018-10-05T15:01:13.963Z,22.90
2018-10-05T15:03:42.964Z,23.00
2018-10-05T15:06:11.756Z,23.00
2018-10-05T15:08:40.530Z,23.10
2018-10-05T15:11:09.440Z,23.10
2018-10-05T15:13:38.244Z,23.10
2018-10-05T15:16:07.276Z,23.10
2018-10-05T15:18:36.810Z,23.20
2018-10-05T15:21:04.888Z,23.20
2018-10-05T15:23:33.691Z,23.20
2018-10-05T15:26:02.464Z,23.20
2018-10-05T15:28:31.074Z,23.30
2018-10-05T15:30:59.664Z,23.30
2018-10-05T15:33:28.196Z,23.30
2018-10-05T15:35:56.771Z,23.30
2018-10-05T15:38:25.312Z,23.20
2018-10-05T15:40:53.870Z,23.20
2018-10-05T15:43:22.396Z,23.30
2018-10-05T15:45:50.971Z,23.40
2018-10-05T15:48:19.512Z,23.30
2018-10-05T15:50:48.067Z,23.10
2018-10-05T15:53:16.600Z,23.00
2018-10-05T15:55:45.156Z,22.90
2018-10-05T15:58:13.719Z,22.80
2018-10-05T16:00:42.251Z,22.70
2018-10-05T16:03:10.803Z,22.50
2018-10-05T16:05:39.440Z,22.40
2018-10-05T16:08:07.920Z,22.30
2018-10-05T16:10:36.451Z,22.20
2018-10-05T16:13:05.073Z,22.10
2018-10-05T16:15:33.776Z,22.00
2018-10-05T16:18:02.499Z,21.90
2018-10-05T16:20:30.963Z,21.90
2018-10-05T16:22:59.499Z,21.80
2018-10-05T16:25:28.021Z,21.60
2018-10-05T16:27:56.565Z,21.50
2018-10-05T16:30:25.088Z,21.40
2018-10-05T16:32:53.628Z,21.20
2018-10-05T16:35:22.144Z,20.90
2018-10-05T16:37:50.937Z,20.60
2018-10-05T16:40:19.683Z,20.50
2018-10-05T16:42:48.240Z,20.30
2018-10-05T16:45:16.773Z,20.20
2018-10-05T16:47:45.342Z,19.90
2018-10-05T16:50:13.856Z,19.70
2018-10-05T16:52:42.392Z,19.50
2018-10-05T16:55:11.048Z,19.30
2018-10-05T16:57:39.594Z,19.10
2018-10-05T17:00:08.335Z,19.00
2018-10-05T17:02:36.884Z,18.80
2018-10-05T17:05:05.433Z,18.70
2018-10-05T17:07:33.979Z,18.50
2018-10-05T17:10:02.500Z,18.40
2018-10-05T17:12:31.053Z,18.20
2018-10-05T17:14:59.606Z,18.10
2018-10-05T17:17:28.560Z,17.90
2018-10-05T17:19:57.082Z,17.80
2018-10-05T17:22:25.700Z,17.80
2018-10-05T17:24:54.231Z,17.80
2018-10-05T17:27:22.840Z,17.80
2018-10-05T17:29:51.420Z,17.80
2018-10-05T17:32:19.984Z,17.60
2018-10-05T17:34:48.583Z,17.60
2018-10-05T17:37:17.382Z,17.50
2018-10-05T17:39:46.162Z,17.50
2018-10-05T17:42:15.008Z,17.50
2018-10-05T17:44:43.921Z,17.50
2018-10-05T17:47:12.848Z,17.40
2018-10-05T17:49:41.553Z,17.30
2018-10-05T17:52:10.458Z,17.20
2018-10-05T17:54:39.377Z,17.20
2018-10-05T17:57:08.142Z,17.20
2018-10-05T17:59:37.028Z,17.10
2018-10-05T18:02:05.808Z,17.10
2018-10-05T18:04:34.329Z,17.00
2018-10-05T18:07:02.849Z,16.90
2018-10-05T18:09:31.383Z,16.80
2018-10-05T18:11:59.912Z,16.80
2018-10-05T18:14:28.460Z,16.70
2018-10-05T18:16:56.972Z,16.70
2018-10-05T18:19:25.514Z,16.60
2018-10-05T18:21:54.028Z,16.60
2018-10-05T18:24:22.568Z,16.50
2018-10-05T18:26:51.125Z,16.40
2018-10-05T18:29:19.675Z,16.40
2018-10-05T18:31:48.217Z,16.30
2018-10-05T18:34:16.765Z,16.30
2018-10-05T18:36:45.292Z,16.20
2018-10-05T18:39:13.828Z,15.90
2018-10-05T18:41:42.434Z,15.80
2018-10-05T18:44:11.039Z,15.80
2018-10-05T18:46:39.556Z,15.70
2018-10-05T18:49:08.125Z,15.70
2018-10-05T18:51:36.666Z,15.70
2018-10-05T18:54:05.245Z,15.70
2018-10-05T18:56:45.090Z,15.70
2018-10-05T18:59:13.669Z,15.70
2018-10-05T19:01:42.217Z,15.70
2018-10-05T19:04:10.825Z,15.70
2018-10-05T19:06:39.453Z,15.70
2018-10-05T19:09:08.057Z,15.60
2018-10-05T19:11:37.228Z,15.50
2018-10-05T19:14:05.847Z,15.50
2018-10-05T19:16:34.380Z,15.50
2018-10-05T19:19:03.268Z,15.40
2018-10-05T19:21:31.896Z,15.40
2018-10-05T19:24:00.448Z,15.40
2018-10-05T19:26:29.158Z,15.30
2018-10-05T19:28:57.613Z,15.30
2018-10-05T19:31:26.154Z,15.30
2018-10-05T19:33:54.713Z,15.30
2018-10-05T19:36:23.316Z,15.20
2018-10-05T19:38:51.845Z,15.20
2018-10-05T19:41:20.376Z,15.20
2018-10-05T19:43:48.978Z,15.10
2018-10-05T19:46:17.527Z,15.10
2018-10-05T19:48:46.087Z,15.10
2018-10-05T19:51:14.648Z,15.10
2018-10-05T19:53:43.221Z,15.10
2018-10-05T19:56:11.811Z,15.00
2018-10-05T19:58:40.359Z,15.00
2018-10-05T20:01:08.943Z,14.90
2018-10-05T20:03:37.509Z,14.90
2018-10-05T20:06:06.047Z,14.90
2018-10-05T20:08:34.716Z,14.80
2018-10-05T20:11:03.276Z,14.80
2018-10-05T20:13:31.850Z,14.70
2018-10-05T20:16:00.389Z,14.70
2018-10-05T20:18:29.037Z,14.60
2018-10-05T20:20:57.577Z,14.60
2018-10-05T20:23:26.184Z,14.50
2018-10-05T20:25:54.724Z,14.50
2018-10-05T20:28:23.431Z,14.50
2018-10-05T20:30:52.028Z,14.40
2018-10-05T20:33:20.548Z,14.40
2018-10-05T20:35:49.095Z,14.40
2018-10-05T20:38:17.662Z,14.40
2018-10-05T20:40:46.201Z,14.30
2018-10-05T20:43:14.696Z,14.30
2018-10-05T20:45:43.264Z,14.30
2018-10-05T20:48:11.789Z,14.20
2018-10-05T20:50:40.380Z,14.20
2018-10-05T20:53:08.888Z,14.20
2018-10-05T20:55:37.439Z,14.20
2018-10-05T20:58:06.052Z,14.10
2018-10-05T21:00:34.609Z,14.10
2018-10-05T21:03:03.129Z,14.10
2018-10-05T21:05:31.713Z,14.10
2018-10-05T21:08:00.249Z,14.00
2018-10-05T21:10:28.804Z,14.00
2018-10-05T21:12:57.324Z,14.00
2018-10-05T21:15:25.916Z,14.00
2018-10-05T21:17:54.444Z,14.00
2018-10-05T21:20:23.019Z,14.00
2018-10-05T21:22:51.544Z,13.90
2018-10-05T21:25:20.108Z,13.90
2018-10-05T21:27:48.631Z,13.90
2018-10-05T21:30:17.204Z,13.80
2018-10-05T21:32:45.772Z,13.70
2018-10-05T21:35:14.323Z,13.80
2018-10-05T21:37:42.859Z,13.70
2018-10-05T21:40:11.416Z,13.70
2018-10-05T21:42:39.964Z,13.70
2018-10-05T21:45:08.566Z,13.70
2018-10-05T21:47:37.104Z,13.70
2018-10-05T21:50:05.741Z,13.70
2018-10-05T21:52:34.294Z,13.60
2018-10-05T21:55:02.872Z,13.60
2018-10-05T21:57:31.411Z,13.60
2018-10-05T22:00:00.000Z,13.50
2018-10-05T22:02:33.640Z,13.50
2018-10-05T22:05:02.512Z,13.50
2018-10-05T22:07:31.078Z,13.50
2018-10-05T22:10:00.010Z,13.50
2018-10-05T22:12:28.872Z,13.40
2018-10-05T22:14:57.433Z,13.40
2018-10-05T22:17:26.068Z,13.40
2018-10-05T22:19:54.639Z,13.40
2018-10-05T22:22:23.209Z,13.30
2018-10-05T22:24:51.791Z,13.30
2018-10-05T22:27:20.325Z,13.30
2018-10-05T22:29:49.328Z,13.20
2018-10-05T22:32:17.908Z,13.20
2018-10-05T22:34:46.451Z,13.20
2018-10-05T22:37:15.040Z,13.20
2018-10-05T22:39:43.605Z,13.20
2018-10-05T22:42:12.172Z,13.20
2018-10-05T22:44:40.703Z,13.20
2018-10-05T22:47:09.264Z,13.10
2018-10-05T22:49:37.805Z,13.10
2018-10-05T22:52:06.620Z,13.10
2018-10-05T22:54:35.145Z,13.10
2018-10-05T22:57:03.740Z,13.00
2018-10-05T22:59:32.273Z,13.00
2018-10-05T23:02:00.853Z,13.00
2018-10-05T23:04:29.407Z,12.90
2018-10-05T23:06:57.980Z,12.80
2018-10-05T23:09:26.516Z,12.70
2018-10-05T23:11:55.089Z,12.70
2018-10-05T23:14:23.630Z,12.70
2018-10-05T23:16:52.177Z,12.70
2018-10-05T23:19:20.700Z,12.80
2018-10-05T23:21:49.272Z,12.70
2018-10-05T23:24:17.798Z,12.70
2018-10-05T23:26:46.359Z,12.70
2018-10-05T23:29:14.876Z,12.60
2018-10-05T23:31:43.451Z,12.60
2018-10-05T23:34:11.999Z,12.60
2018-10-05T23:36:40.583Z,12.60
2018-10-05T23:39:10.536Z,12.50
2018-10-05T23:41:39.090Z,12.50
2018-10-05T23:44:07.796Z,12.50
2018-10-05T23:46:36.340Z,12.50
2018-10-05T23:49:04.975Z,12.50
2018-10-05T23:51:33.509Z,12.60
2018-10-05T23:54:02.034Z,12.60
2018-10-05T23:56:30.590Z,12.50
2018-10-05T23:58:59.106Z,12.50
